createdAt,value
2023-05-21T00:01:05.479Z,15.90
2023-05-21T00:03:33.164Z,16.50
2023-05-21T00:08:27.645Z,17.20
2023-05-21T00:10:55.217Z,16.50
2023-05-21T00:13:21.975Z,16.60
2023-05-21T00:18:16.047Z,15.70
2023-05-21T00:23:09.836Z,16.50
2023-05-21T00:28:04.815Z,16.00
2023-05-21T00:30:31.509Z,16.50
2023-05-21T00:40:23.360Z,16.30
2023-05-21T00:45:17.836Z,16.10
2023-05-21T00:47:47.705Z,16.40
2023-05-21T00:50:15.756Z,16.50
2023-05-21T00:52:44.959Z,16.00
2023-05-21T00:55:11.852Z,16.20
2023-05-21T00:57:40.270Z,16.30
2023-05-21T01:00:09.979Z,15.40
2023-05-21T01:02:37.766Z,16.20
2023-05-21T01:05:05.983Z,16.20
2023-05-21T01:10:03.369Z,16.20
2023-05-21T01:12:31.720Z,16.20
2023-05-21T01:14:59.649Z,16.40
2023-05-21T01:17:28.280Z,16.20
2023-05-21T01:19:57.940Z,16.00
2023-05-21T01:22:28.214Z,16.20
2023-05-21T01:24:55.647Z,16.00
2023-05-21T01:27:22.476Z,16.10
2023-05-21T01:32:21.982Z,15.70
2023-05-21T01:34:55.654Z,16.10
2023-05-21T01:37:26.854Z,15.60
2023-05-21T01:39:58.661Z,15.90
2023-05-21T01:42:27.983Z,15.80
2023-05-21T01:44:56.870Z,15.80
2023-05-21T01:47:25.493Z,15.80
2023-05-21T01:52:19.298Z,15.80
2023-05-21T01:57:13.600Z,15.70
2023-05-21T01:59:40.419Z,15.70
2023-05-21T02:04:34.142Z,15.70
2023-05-21T02:07:01.660Z,15.70
2023-05-21T02:11:56.053Z,15.70
2023-05-21T02:14:24.591Z,15.60
2023-05-21T02:16:51.838Z,15.80
2023-05-21T02:19:18.677Z,15.70
2023-05-21T02:26:39.315Z,15.40
2023-05-21T02:29:06.206Z,15.50
2023-05-21T02:31:33.585Z,15.60
2023-05-21T02:34:00.442Z,15.80
2023-05-21T02:36:28.116Z,15.40
2023-05-21T02:41:23.767Z,15.10
2023-05-21T02:43:50.448Z,15.20
2023-05-21T02:48:44.928Z,15.30
2023-05-21T02:51:11.606Z,15.30
2023-05-21T02:53:39.016Z,15.70
2023-05-21T02:56:06.603Z,15.70
2023-05-21T02:58:33.320Z,15.40
2023-05-21T03:03:27.786Z,14.90
2023-05-21T03:05:55.282Z,15.20
2023-05-21T03:13:16.091Z,15.50
2023-05-21T03:20:42.908Z,15.70
2023-05-21T03:23:13.558Z,15.20
2023-05-21T03:30:37.565Z,15.70
2023-05-21T03:33:05.793Z,15.60
2023-05-21T03:37:59.577Z,15.40
2023-05-21T03:40:27.074Z,15.20
2023-05-21T03:45:20.813Z,15.80
2023-05-21T03:47:48.149Z,15.70
2023-05-21T03:50:15.022Z,15.70
2023-05-21T03:52:41.680Z,15.70
2023-05-21T03:55:09.337Z,15.70
2023-05-21T03:57:37.155Z,15.60
2023-05-21T04:00:04.964Z,15.90
2023-05-21T04:02:32.216Z,15.80
2023-05-21T04:04:58.983Z,16.20
2023-05-21T04:09:53.479Z,16.20
2023-05-21T04:14:48.068Z,16.00
2023-05-21T04:17:14.753Z,16.10
2023-05-21T04:22:10.809Z,16.30
2023-05-21T04:24:38.003Z,16.40
2023-05-21T04:27:06.258Z,16.70
2023-05-21T04:29:32.989Z,16.60
2023-05-21T04:32:00.353Z,16.60
2023-05-21T04:34:27.032Z,16.90
2023-05-21T04:36:53.766Z,16.90
2023-05-21T04:39:20.976Z,17.00
2023-05-21T04:41:50.070Z,17.10
2023-05-21T04:44:16.796Z,17.20
2023-05-21T04:46:45.288Z,17.30
2023-05-21T04:49:12.954Z,17.40
2023-05-21T04:51:39.672Z,17.50
2023-05-21T04:54:06.354Z,17.50
2023-05-21T04:56:33.086Z,17.60
2023-05-21T04:58:59.731Z,17.90
2023-05-21T05:01:28.673Z,17.80
2023-05-21T05:03:55.739Z,17.90
2023-05-21T05:06:25.106Z,18.00
2023-05-21T05:08:51.824Z,18.10
2023-05-21T05:11:18.709Z,18.40
2023-05-21T05:16:13.829Z,18.30
2023-05-21T05:18:40.589Z,18.30
2023-05-21T05:21:07.270Z,18.50
2023-05-21T05:23:34.668Z,18.40
2023-05-21T05:26:01.430Z,18.50
2023-05-21T05:28:28.141Z,18.50
2023-05-21T05:30:54.902Z,18.70
2023-05-21T05:33:21.609Z,18.60
2023-05-21T05:35:48.457Z,18.90
2023-05-21T05:38:16.383Z,19.00
2023-05-21T05:40:43.817Z,19.00
2023-05-21T05:43:10.626Z,19.20
2023-05-21T05:45:37.940Z,19.00
2023-05-21T05:48:05.494Z,19.20
2023-05-21T05:50:32.421Z,19.20
2023-05-21T05:52:59.099Z,19.00
2023-05-21T05:55:26.193Z,19.30
2023-05-21T05:57:53.544Z,19.30
2023-05-21T06:00:20.237Z,19.40
2023-05-21T06:02:47.810Z,19.60
2023-05-21T06:05:14.701Z,19.60
2023-05-21T06:07:41.615Z,19.60
2023-05-21T06:10:09.209Z,19.70
2023-05-21T06:12:35.912Z,19.90
2023-05-21T06:15:03.981Z,19.80
2023-05-21T06:17:31.019Z,19.80
2023-05-21T06:19:57.746Z,20.10
2023-05-21T06:22:25.706Z,19.80
2023-05-21T06:24:52.668Z,19.90
2023-05-21T06:27:19.446Z,19.90
2023-05-21T06:29:46.107Z,19.90
2023-05-21T06:32:13.669Z,19.90
2023-05-21T06:34:40.667Z,20.00
2023-05-21T06:37:07.381Z,20.00
2023-05-21T06:39:34.058Z,20.20
2023-05-21T06:42:01.115Z,20.10
2023-05-21T06:44:27.790Z,20.10
2023-05-21T06:46:54.478Z,20.10
2023-05-21T06:49:21.809Z,20.30
2023-05-21T06:51:48.590Z,20.20
2023-05-21T06:54:15.320Z,20.10
2023-05-21T06:56:41.998Z,20.00
2023-05-21T06:59:08.712Z,20.30
2023-05-21T07:01:35.441Z,20.30
2023-05-21T07:04:02.278Z,20.30
2023-05-21T07:06:29.619Z,20.30
2023-05-21T07:08:56.337Z,20.10
2023-05-21T07:11:27.891Z,20.30
2023-05-21T07:13:54.681Z,20.60
2023-05-21T07:16:21.408Z,20.70
2023-05-21T07:18:48.137Z,20.80
2023-05-21T07:21:14.872Z,21.00
2023-05-21T07:23:42.171Z,21.20
2023-05-21T07:26:09.598Z,21.30
2023-05-21T07:28:36.224Z,21.50
2023-05-21T07:31:03.174Z,21.80
2023-05-21T07:33:30.027Z,21.90
2023-05-21T07:35:56.704Z,22.10
2023-05-21T07:38:23.399Z,22.30
2023-05-21T07:40:50.744Z,22.60
2023-05-21T07:43:17.709Z,22.70
2023-05-21T07:45:44.623Z,22.60
2023-05-21T07:48:11.314Z,22.60
2023-05-21T07:50:38.043Z,22.80
2023-05-21T07:53:05.085Z,22.90
2023-05-21T07:55:31.856Z,23.10
2023-05-21T07:57:59.258Z,23.00
2023-05-21T08:00:25.940Z,23.00
2023-05-21T08:02:58.900Z,23.10
2023-05-21T08:05:25.642Z,23.20
2023-05-21T08:07:52.312Z,23.30
2023-05-21T08:10:19.638Z,23.40
2023-05-21T08:12:46.530Z,23.50
2023-05-21T08:15:13.828Z,23.40
2023-05-21T08:17:41.112Z,23.60
2023-05-21T08:20:08.849Z,23.50
2023-05-21T08:22:35.475Z,23.60
2023-05-21T08:25:02.415Z,23.80
2023-05-21T08:27:29.132Z,23.70
2023-05-21T08:29:55.926Z,23.90
2023-05-21T08:32:23.294Z,23.80
2023-05-21T08:34:49.998Z,23.80
2023-05-21T08:37:17.649Z,23.70
2023-05-21T08:39:44.432Z,23.90
2023-05-21T08:42:35.719Z,24.00
2023-05-21T08:45:06.346Z,24.20
2023-05-21T08:47:35.970Z,24.30
2023-05-21T08:50:04.122Z,24.40
2023-05-21T08:52:31.073Z,24.50
2023-05-21T08:54:58.365Z,24.70
2023-05-21T08:57:26.586Z,24.60
2023-05-21T08:59:53.949Z,24.70
2023-05-21T09:02:20.785Z,24.60
2023-05-21T09:04:49.537Z,24.70
2023-05-21T09:07:16.497Z,24.90
2023-05-21T09:09:52.845Z,25.10
2023-05-21T09:12:19.914Z,24.90
2023-05-21T09:14:48.000Z,24.90
2023-05-21T09:17:15.034Z,25.00
2023-05-21T09:20:11.393Z,25.00
2023-05-21T09:22:41.904Z,25.30
2023-05-21T09:25:09.927Z,25.20
2023-05-21T09:27:37.129Z,25.20
2023-05-21T09:30:05.768Z,25.40
2023-05-21T09:32:32.675Z,25.20
2023-05-21T09:35:08.819Z,25.20
2023-05-21T09:37:38.942Z,25.20
2023-05-21T09:40:11.134Z,25.20
2023-05-21T09:42:41.960Z,25.00
2023-05-21T09:45:10.140Z,25.40
2023-05-21T09:47:42.373Z,25.30
2023-05-21T09:50:10.893Z,25.20
2023-05-21T09:52:38.659Z,25.40
2023-05-21T09:55:43.617Z,25.50
2023-05-21T09:58:11.605Z,25.50
2023-05-21T10:00:38.759Z,25.60
2023-05-21T10:03:11.825Z,25.50
2023-05-21T10:05:40.604Z,25.70
2023-05-21T10:08:09.021Z,25.30
2023-05-21T10:10:37.772Z,25.60
2023-05-21T10:13:06.515Z,25.60
2023-05-21T10:15:38.912Z,25.60
2023-05-21T10:18:06.537Z,25.70
2023-05-21T10:20:33.534Z,26.00
2023-05-21T10:23:02.411Z,26.00
2023-05-21T10:25:30.574Z,26.30
2023-05-21T10:27:57.758Z,26.10
2023-05-21T10:30:25.139Z,26.20
2023-05-21T10:32:52.735Z,26.30
2023-05-21T10:35:19.687Z,26.70
2023-05-21T10:37:46.508Z,26.70
2023-05-21T10:40:14.261Z,26.80
2023-05-21T10:43:13.076Z,27.10
2023-05-21T10:45:53.279Z,27.40
2023-05-21T10:48:37.592Z,27.50
2023-05-21T10:51:16.373Z,27.50
2023-05-21T10:54:10.795Z,27.70
2023-05-21T10:56:42.275Z,27.90
2023-05-21T10:59:31.125Z,28.20
2023-05-21T11:01:57.969Z,28.10
2023-05-21T11:04:27.637Z,28.10
2023-05-21T11:06:55.509Z,27.90
2023-05-21T11:09:22.590Z,27.90
2023-05-21T11:11:51.843Z,27.60
2023-05-21T11:14:31.845Z,27.50
2023-05-21T11:16:59.119Z,27.60
2023-05-21T11:19:36.610Z,27.50
2023-05-21T11:22:10.779Z,27.80
2023-05-21T11:24:39.285Z,27.60
2023-05-21T11:27:07.922Z,27.50
2023-05-21T11:29:40.191Z,27.50
2023-05-21T11:32:08.770Z,27.50
2023-05-21T11:34:40.133Z,27.60
2023-05-21T11:37:26.015Z,27.70
2023-05-21T11:39:52.871Z,27.90
2023-05-21T11:42:29.648Z,28.00
2023-05-21T11:44:57.549Z,28.20
2023-05-21T11:47:25.857Z,28.50
2023-05-21T11:49:52.808Z,28.70
2023-05-21T11:52:19.861Z,29.20
2023-05-21T11:54:49.854Z,29.50
2023-05-21T11:57:18.416Z,29.60
2023-05-21T11:59:45.918Z,29.60
2023-05-21T12:02:15.935Z,29.90
2023-05-21T12:04:43.344Z,30.00
2023-05-21T12:07:10.834Z,29.90
2023-05-21T12:09:40.667Z,30.20
2023-05-21T12:12:08.796Z,30.30
2023-05-21T12:14:35.727Z,30.40
2023-05-21T12:17:03.805Z,30.30
2023-05-21T12:19:33.482Z,30.20
2023-05-21T12:22:02.491Z,29.80
2023-05-21T12:24:29.334Z,29.50
2023-05-21T12:26:58.183Z,29.10
2023-05-21T12:29:25.749Z,29.40
2023-05-21T12:31:52.480Z,29.70
2023-05-21T12:34:38.580Z,29.80
2023-05-21T12:37:07.124Z,29.80
2023-05-21T12:39:37.040Z,29.80
2023-05-21T12:42:04.204Z,29.80
2023-05-21T12:44:31.338Z,29.90
2023-05-21T12:46:58.333Z,30.00
2023-05-21T12:49:35.626Z,29.70
2023-05-21T12:52:05.134Z,30.20
2023-05-21T12:54:34.252Z,30.60
2023-05-21T12:57:13.282Z,31.10
2023-05-21T12:59:50.806Z,31.20
2023-05-21T13:02:20.627Z,31.10
2023-05-21T13:04:47.679Z,30.80
2023-05-21T13:07:15.889Z,30.40
2023-05-21T13:09:42.689Z,29.80
2023-05-21T13:12:09.416Z,29.70
2023-05-21T13:14:36.098Z,29.70
2023-05-21T13:17:02.898Z,29.80
2023-05-21T13:19:29.867Z,30.00
2023-05-21T13:21:56.737Z,29.70
2023-05-21T13:24:24.165Z,29.60
2023-05-21T13:26:51.033Z,29.30
2023-05-21T13:29:17.798Z,29.00
2023-05-21T13:31:44.735Z,29.00
2023-05-21T13:34:14.254Z,29.00
2023-05-21T13:36:41.237Z,28.90
2023-05-21T13:39:07.912Z,28.50
2023-05-21T13:41:35.242Z,28.90
2023-05-21T13:44:01.929Z,29.70
2023-05-21T13:46:28.902Z,30.30
2023-05-21T13:48:55.877Z,30.50
2023-05-21T13:51:37.588Z,30.50
2023-05-21T13:54:05.536Z,30.70
2023-05-21T13:56:33.274Z,30.70
2023-05-21T13:59:01.423Z,31.00
2023-05-21T14:01:28.304Z,31.80
2023-05-21T14:03:55.147Z,32.40
2023-05-21T14:06:21.892Z,32.60
2023-05-21T14:08:48.806Z,33.10
2023-05-21T14:11:15.728Z,34.20
2023-05-21T14:13:42.580Z,35.40
2023-05-21T14:16:10.073Z,35.90
2023-05-21T14:18:36.800Z,36.30
2023-05-21T14:21:03.715Z,36.10
2023-05-21T14:23:30.381Z,35.90
2023-05-21T14:25:57.071Z,35.90
2023-05-21T14:28:23.816Z,36.50
2023-05-21T14:30:50.517Z,36.50
2023-05-21T14:33:18.085Z,36.20
2023-05-21T14:35:44.861Z,35.30
2023-05-21T14:38:11.613Z,35.50
2023-05-21T14:40:38.330Z,36.20
2023-05-21T14:43:05.746Z,36.60
2023-05-21T14:45:34.602Z,36.70
2023-05-21T14:48:01.479Z,36.70
2023-05-21T14:50:28.993Z,35.80
2023-05-21T14:52:55.693Z,35.60
2023-05-21T14:55:22.665Z,35.00
2023-05-21T14:57:49.397Z,35.20
2023-05-21T15:00:16.269Z,34.70
2023-05-21T15:02:43.239Z,33.80
2023-05-21T15:05:10.040Z,33.60
2023-05-21T15:07:37.371Z,33.60
2023-05-21T15:10:12.020Z,33.70
2023-05-21T15:12:39.715Z,34.40
2023-05-21T15:15:07.189Z,35.40
2023-05-21T15:17:34.408Z,35.50
2023-05-21T15:20:03.625Z,34.20
2023-05-21T15:22:30.360Z,34.30
2023-05-21T15:24:57.698Z,33.70
2023-05-21T15:27:24.417Z,33.60
2023-05-21T15:29:51.742Z,33.50
2023-05-21T15:32:20.036Z,33.70
2023-05-21T15:34:47.402Z,33.70
2023-05-21T15:37:14.738Z,32.80
2023-05-21T15:39:42.219Z,32.00
2023-05-21T15:42:13.236Z,31.60
2023-05-21T15:44:40.500Z,31.40
2023-05-21T15:47:07.556Z,31.20
2023-05-21T15:49:35.242Z,30.80
2023-05-21T15:52:02.657Z,30.80
2023-05-21T15:54:30.180Z,30.90
2023-05-21T15:56:57.137Z,31.00
2023-05-21T15:59:24.976Z,31.10
2023-05-21T16:01:51.764Z,31.10
2023-05-21T16:04:19.639Z,31.00
2023-05-21T16:06:47.062Z,31.20
2023-05-21T16:09:13.871Z,31.50
2023-05-21T16:11:40.568Z,31.20
2023-05-21T16:14:07.270Z,30.90
2023-05-21T16:16:35.008Z,30.40
2023-05-21T16:19:01.913Z,30.20
2023-05-21T16:21:28.647Z,30.80
2023-05-21T16:23:55.580Z,31.40
2023-05-21T16:26:22.273Z,31.10
2023-05-21T16:28:49.080Z,30.90
2023-05-21T16:31:15.814Z,30.50
2023-05-21T16:33:43.712Z,30.00
2023-05-21T16:36:10.551Z,29.50
2023-05-21T16:38:37.750Z,29.20
2023-05-21T16:41:04.741Z,28.90
2023-05-21T16:43:31.975Z,28.70
2023-05-21T16:45:58.971Z,28.60
2023-05-21T16:48:25.804Z,28.30
2023-05-21T16:50:53.344Z,28.20
2023-05-21T16:53:20.614Z,28.00
2023-05-21T16:55:47.803Z,27.90
2023-05-21T16:58:14.804Z,27.70
2023-05-21T17:00:41.666Z,27.50
2023-05-21T17:03:09.040Z,27.30
2023-05-21T17:05:38.162Z,27.30
2023-05-21T17:08:06.880Z,27.10
2023-05-21T17:10:33.971Z,27.00
2023-05-21T17:13:20.849Z,26.90
2023-05-21T17:15:48.982Z,26.90
2023-05-21T17:18:16.276Z,26.80
2023-05-21T17:20:45.373Z,26.60
2023-05-21T17:23:13.641Z,26.70
2023-05-21T17:25:41.082Z,26.70
2023-05-21T17:28:08.150Z,26.20
2023-05-21T17:30:34.913Z,26.40
2023-05-21T17:33:03.025Z,26.30
2023-05-21T17:35:30.162Z,26.30
2023-05-21T17:37:57.001Z,26.20
2023-05-21T17:40:25.214Z,26.10
2023-05-21T17:42:52.345Z,26.20
2023-05-21T17:45:19.433Z,25.90
2023-05-21T17:47:46.144Z,26.00
2023-05-21T17:50:12.950Z,25.60
2023-05-21T17:52:39.839Z,25.70
2023-05-21T17:55:07.052Z,25.60
2023-05-21T17:57:35.091Z,25.60
2023-05-21T18:00:11.104Z,25.60
2023-05-21T18:02:37.931Z,25.50
2023-05-21T18:05:05.064Z,25.40
2023-05-21T18:07:31.805Z,25.40
2023-05-21T18:09:58.669Z,25.20
2023-05-21T18:12:25.380Z,25.20
2023-05-21T18:14:52.746Z,25.40
2023-05-21T18:17:22.714Z,25.00
2023-05-21T18:19:50.331Z,24.90
2023-05-21T18:22:17.060Z,24.90
2023-05-21T18:24:43.763Z,24.60
2023-05-21T18:27:11.598Z,24.90
2023-05-21T18:29:38.293Z,24.70
2023-05-21T18:32:06.566Z,24.60
2023-05-21T18:34:33.346Z,24.50
2023-05-21T18:37:01.925Z,24.50
2023-05-21T18:39:29.024Z,24.40
2023-05-21T18:42:11.364Z,24.30
2023-05-21T18:44:39.511Z,24.30
2023-05-21T18:47:07.176Z,24.20
2023-05-21T18:49:35.300Z,24.10
2023-05-21T18:52:02.339Z,24.10
2023-05-21T18:54:29.040Z,24.20
2023-05-21T18:56:58.864Z,23.90
2023-05-21T18:59:25.591Z,24.00
2023-05-21T19:01:52.379Z,23.80
2023-05-21T19:04:19.855Z,23.70
2023-05-21T19:06:46.883Z,23.60
2023-05-21T19:09:13.703Z,23.70
2023-05-21T19:11:40.438Z,23.60
2023-05-21T19:14:07.125Z,23.50
2023-05-21T19:16:33.929Z,23.50
2023-05-21T19:19:01.326Z,23.40
2023-05-21T19:21:28.785Z,23.30
2023-05-21T19:23:55.537Z,23.30
2023-05-21T19:26:22.819Z,23.30
2023-05-21T19:28:52.235Z,23.30
2023-05-21T19:31:19.154Z,23.40
2023-05-21T19:33:45.996Z,22.90
2023-05-21T19:36:12.741Z,23.40
2023-05-21T19:38:46.403Z,23.10
2023-05-21T19:41:13.082Z,23.10
2023-05-21T19:43:40.037Z,23.00
2023-05-21T19:46:06.947Z,23.10
2023-05-21T19:48:34.691Z,23.30
2023-05-21T19:51:01.607Z,22.60
2023-05-21T19:53:29.129Z,22.80
2023-05-21T19:55:56.988Z,22.80
2023-05-21T19:58:26.422Z,22.60
2023-05-21T20:00:55.113Z,22.70
2023-05-21T20:03:23.563Z,22.80
2023-05-21T20:05:50.645Z,23.00
2023-05-21T20:08:17.370Z,22.70
2023-05-21T20:10:44.122Z,22.70
2023-05-21T20:13:14.326Z,22.50
2023-05-21T20:15:41.058Z,22.80
2023-05-21T20:18:08.471Z,22.70
2023-05-21T20:20:37.298Z,22.70
2023-05-21T20:23:04.862Z,21.10
2023-05-21T20:25:31.796Z,22.60
2023-05-21T20:28:00.713Z,22.50
2023-05-21T20:30:33.822Z,22.50
2023-05-21T20:33:01.518Z,22.60
2023-05-21T20:35:29.204Z,22.50
2023-05-21T20:37:56.697Z,22.50
2023-05-21T20:40:23.911Z,22.50
2023-05-21T20:42:52.824Z,22.50
2023-05-21T20:45:20.071Z,22.60
2023-05-21T20:47:49.012Z,22.40
2023-05-21T20:50:17.031Z,22.30
2023-05-21T20:52:46.905Z,22.40
2023-05-21T20:55:15.206Z,22.40
2023-05-21T20:57:41.946Z,22.30
2023-05-21T21:00:11.083Z,22.50
2023-05-21T21:02:38.197Z,22.20
2023-05-21T21:05:09.501Z,22.10
2023-05-21T21:07:36.701Z,22.20
2023-05-21T21:10:04.797Z,22.10
2023-05-21T21:12:31.557Z,22.10
2023-05-21T21:14:58.260Z,22.00
2023-05-21T21:17:25.693Z,22.00
2023-05-21T21:19:52.552Z,21.70
2023-05-21T21:22:20.256Z,22.00
2023-05-21T21:24:47.540Z,21.90
2023-05-21T21:27:14.682Z,21.90
2023-05-21T21:29:41.417Z,21.90
2023-05-21T21:32:08.172Z,21.60
2023-05-21T21:34:35.545Z,21.80
2023-05-21T21:37:02.261Z,21.80
2023-05-21T21:39:29.629Z,21.70
2023-05-21T21:44:24.070Z,21.50
2023-05-21T21:46:51.368Z,21.60
2023-05-21T21:49:18.900Z,21.70
2023-05-21T21:51:45.814Z,21.50
2023-05-21T21:54:12.603Z,21.50
2023-05-21T21:56:40.026Z,21.40
2023-05-21T21:59:06.802Z,21.50
2023-05-21T22:01:33.772Z,21.50
2023-05-21T22:04:00.849Z,21.00
2023-05-21T22:06:27.965Z,21.60
2023-05-21T22:08:54.810Z,21.40
2023-05-21T22:11:22.045Z,21.30
2023-05-21T22:13:49.481Z,21.50
2023-05-21T22:16:16.267Z,21.40
2023-05-21T22:18:43.067Z,21.10
2023-05-21T22:21:10.647Z,21.30
2023-05-21T22:23:38.239Z,21.10
2023-05-21T22:26:05.350Z,21.30
2023-05-21T22:28:32.101Z,21.30
2023-05-21T22:30:59.558Z,21.30
2023-05-21T22:33:26.344Z,21.30
2023-05-21T22:35:53.550Z,21.20
2023-05-21T22:38:20.313Z,21.20
2023-05-21T22:40:47.006Z,21.20
2023-05-21T22:43:13.756Z,21.20
2023-05-21T22:45:40.538Z,21.30
2023-05-21T22:48:08.987Z,21.10
2023-05-21T22:50:37.488Z,21.10
2023-05-21T22:53:04.527Z,21.20
2023-05-21T22:55:31.207Z,20.40
2023-05-21T22:57:57.968Z,21.20
2023-05-21T23:00:25.386Z,21.00
2023-05-21T23:02:54.284Z,21.00
2023-05-21T23:05:22.472Z,20.60
2023-05-21T23:07:49.358Z,20.90
2023-05-21T23:10:16.404Z,20.80
2023-05-21T23:12:43.103Z,21.00
2023-05-21T23:15:10.615Z,20.90
2023-05-21T23:17:37.791Z,21.00
2023-05-21T23:20:06.330Z,20.40
2023-05-21T23:22:33.793Z,20.80
2023-05-21T23:25:00.615Z,20.80
2023-05-21T23:27:27.358Z,20.80
2023-05-21T23:29:54.498Z,21.00
2023-05-21T23:32:22.555Z,20.60
2023-05-21T23:34:49.291Z,20.60
2023-05-21T23:37:15.947Z,20.60
2023-05-21T23:39:44.850Z,20.60
2023-05-21T23:42:11.502Z,20.30
2023-05-21T23:44:38.124Z,20.60
2023-05-21T23:47:05.837Z,20.70
2023-05-21T23:49:32.534Z,20.50
2023-05-21T23:51:59.322Z,20.50
2023-05-21T23:54:26.068Z,20.50
2023-05-21T23:56:53.385Z,20.50
2023-05-21T23:59:20.200Z,20.50
